createdAt,value
2018-10-21T00:00:21.991Z,97689.58
2018-10-21T00:02:49.451Z,97693.47
2018-10-21T00:05:18.236Z,97690.37
2018-10-21T00:07:46.153Z,97683.05
2018-10-21T00:10:13.482Z,97680.46
2018-10-21T00:12:40.815Z,97682.98
2018-10-21T00:15:09.052Z,97677.05
2018-10-21T00:17:36.852Z,97677.34
2018-10-21T00:20:04.377Z,97679.25
2018-10-21T00:22:31.942Z,97682.20
2018-10-21T00:24:59.222Z,97681.07
2018-10-21T00:27:28.787Z,97688.00
2018-10-21T00:29:56.263Z,97673.45
2018-10-21T00:32:58.661Z,97684.18
2018-10-21T00:35:26.264Z,97691.50
2018-10-21T00:37:54.826Z,97686.52
2018-10-21T00:40:22.213Z,97684.00
2018-10-21T00:42:51.633Z,97677.51
2018-10-21T00:45:19.450Z,97676.42
2018-10-21T00:47:46.896Z,97670.73
2018-10-21T00:50:14.276Z,97665.81
2018-10-21T00:52:42.418Z,97664.01
2018-10-21T00:55:10.614Z,97662.59
2018-10-21T00:57:42.354Z,97659.91
2018-10-21T01:00:11.567Z,97669.50
2018-10-21T01:02:40.190Z,97673.08
2018-10-21T01:05:08.966Z,97668.06
2018-10-21T01:07:36.340Z,97672.11
2018-10-21T01:10:04.336Z,97674.89
2018-10-21T01:12:31.929Z,97675.37
2018-10-21T01:14:59.403Z,97665.52
2018-10-21T01:17:26.684Z,97666.23
2018-10-21T01:19:54.091Z,97672.92
2018-10-21T01:22:22.100Z,97668.67
2018-10-21T01:24:49.760Z,97663.49
2018-10-21T01:27:17.211Z,97669.97
2018-10-21T01:29:46.343Z,97660.00
2018-10-21T01:32:15.569Z,97668.17
2018-10-21T01:34:43.028Z,97655.09
2018-10-21T01:37:10.574Z,97652.19
2018-10-21T01:40:54.094Z,97645.64
2018-10-21T01:43:22.825Z,97647.80
2018-10-21T01:45:51.410Z,97637.13
2018-10-21T01:48:19.925Z,97635.63
2018-10-21T01:50:47.405Z,97645.20
2018-10-21T01:53:15.912Z,97647.84
2018-10-21T01:55:45.056Z,97645.99
2018-10-21T01:58:12.485Z,97639.16
2018-10-21T02:00:40.656Z,97640.18
2018-10-21T02:03:08.248Z,97634.80
2018-10-21T02:05:35.987Z,97629.22
2018-10-21T02:08:03.910Z,97631.66
2018-10-21T02:17:30.281Z,97616.92
2018-10-21T02:19:58.144Z,97609.52
2018-10-21T02:22:25.616Z,97607.52
2018-10-21T02:24:53.097Z,97612.19
2018-10-21T02:27:21.761Z,97608.15
2018-10-21T02:29:49.794Z,97610.19
2018-10-21T02:32:17.210Z,97607.73
2018-10-21T02:34:44.617Z,97611.80
2018-10-21T02:37:12.022Z,97609.72
2018-10-21T02:39:39.379Z,97601.94
2018-10-21T02:42:06.885Z,97607.16
2018-10-21T02:44:35.504Z,97614.95
2018-10-21T02:47:05.111Z,97606.91
2018-10-21T02:49:32.662Z,97609.98
2018-10-21T02:52:07.688Z,97610.84
2018-10-21T02:54:35.804Z,97606.72
2018-10-21T02:57:04.869Z,97606.11
2018-10-21T02:59:33.652Z,97597.45
2018-10-21T03:02:01.367Z,97600.44
2018-10-21T03:04:28.906Z,97607.59
2018-10-21T03:06:56.369Z,97606.30
2018-10-21T03:09:24.046Z,97613.27
2018-10-21T03:11:52.152Z,97608.39
2018-10-21T03:14:19.706Z,97616.69
2018-10-21T03:16:47.094Z,97607.75
2018-10-21T03:19:15.614Z,97619.03
2018-10-21T03:21:44.693Z,97618.42
2018-10-21T03:24:15.970Z,97615.98
2018-10-21T03:26:44.198Z,97616.44
2018-10-21T03:29:12.655Z,97617.27
2018-10-21T03:31:40.691Z,97629.63
2018-10-21T03:34:09.785Z,97623.05
2018-10-21T03:36:36.997Z,97626.44
2018-10-21T03:39:06.521Z,97626.64
2018-10-21T03:41:36.333Z,97627.35
2018-10-21T03:44:04.626Z,97634.64
2018-10-21T03:46:32.891Z,97631.66
2018-10-21T03:49:00.304Z,97632.56
2018-10-21T03:51:27.696Z,97636.80
2018-10-21T03:53:57.239Z,97643.02
2018-10-21T03:56:24.891Z,97638.28
2018-10-21T03:58:52.291Z,97641.75
2018-10-21T04:01:19.734Z,97639.33
2018-10-21T04:03:52.274Z,97642.55
2018-10-21T04:06:19.714Z,97646.72
2018-10-21T04:08:46.967Z,97641.31
2018-10-21T04:11:16.608Z,97642.67
2018-10-21T04:13:44.103Z,97634.39
2018-10-21T04:16:11.670Z,97632.70
2018-10-21T04:18:39.001Z,97640.77
2018-10-21T04:21:06.424Z,97636.94
2018-10-21T04:23:34.087Z,97629.49
2018-10-21T04:26:01.642Z,97635.63
2018-10-21T04:28:29.096Z,97639.77
2018-10-21T04:30:57.266Z,97641.06
2018-10-21T04:33:41.416Z,97633.50
2018-10-21T04:36:11.538Z,97632.88
2018-10-21T04:38:50.487Z,97635.26
2018-10-21T04:41:18.541Z,97639.06
2018-10-21T04:43:46.079Z,97632.61
2018-10-21T04:46:13.356Z,97630.80
2018-10-21T04:48:42.887Z,97631.66
2018-10-21T04:51:11.059Z,97633.36
2018-10-21T04:53:39.087Z,97627.67
2018-10-21T04:56:08.833Z,97624.44
2018-10-21T04:58:36.202Z,97624.63
2018-10-21T05:01:08.555Z,97619.66
2018-10-21T05:03:38.433Z,97629.00
2018-10-21T05:06:07.764Z,97631.02
2018-10-21T05:08:35.220Z,97622.94
2018-10-21T05:11:02.756Z,97621.09
2018-10-21T05:13:30.569Z,97624.17
2018-10-21T05:15:58.068Z,97612.55
2018-10-21T05:18:27.632Z,97611.84
2018-10-21T05:20:54.937Z,97610.19
2018-10-21T05:23:22.332Z,97607.91
2018-10-21T05:25:49.644Z,97607.51
2018-10-21T05:28:23.283Z,97599.98
2018-10-21T05:30:51.662Z,97596.50
2018-10-21T05:33:19.530Z,97598.17
2018-10-21T05:35:47.072Z,97594.16
2018-10-21T05:38:15.245Z,97594.75
2018-10-21T05:40:44.968Z,97583.81
2018-10-21T05:43:12.747Z,97581.20
2018-10-21T05:45:40.236Z,97589.94
2018-10-21T05:48:07.947Z,97593.25
2018-10-21T05:50:35.420Z,97599.16
2018-10-21T05:53:03.385Z,97599.95
2018-10-21T05:55:32.462Z,97604.69
2018-10-21T05:58:01.045Z,97615.81
2018-10-21T06:00:28.387Z,97614.06
2018-10-21T06:02:56.585Z,97611.84
2018-10-21T06:05:45.608Z,97609.13
2018-10-21T06:08:13.002Z,97612.21
2018-10-21T06:10:41.039Z,97607.70
2018-10-21T06:13:09.945Z,97614.30
2018-10-21T06:15:37.543Z,97608.99
2018-10-21T06:18:37.427Z,97615.84
2018-10-21T06:21:05.677Z,97612.86
2018-10-21T06:23:33.713Z,97623.16
2018-10-21T06:26:05.314Z,97622.95
2018-10-21T06:28:32.697Z,97629.89
2018-10-21T06:30:59.992Z,97632.22
2018-10-21T06:33:27.277Z,97630.67
2018-10-21T06:35:54.612Z,97633.36
2018-10-21T06:38:21.909Z,97630.12
2018-10-21T06:40:49.206Z,97638.42
2018-10-21T06:43:16.518Z,97638.67
2018-10-21T06:45:43.866Z,97643.96
2018-10-21T06:48:11.090Z,97639.56
2018-10-21T06:50:38.374Z,97647.58
2018-10-21T06:53:05.649Z,97654.69
2018-10-21T06:55:32.990Z,97664.51
2018-10-21T06:58:00.304Z,97656.55
2018-10-21T07:00:27.572Z,97668.00
2018-10-21T07:02:54.897Z,97666.36
2018-10-21T07:05:33.548Z,97657.42
2018-10-21T07:08:00.811Z,97660.69
2018-10-21T07:10:28.119Z,97654.95
2018-10-21T07:12:55.399Z,97661.41
2018-10-21T07:15:22.738Z,97659.16
2018-10-21T07:17:49.969Z,97659.85
2018-10-21T07:20:17.220Z,97663.23
2018-10-21T07:22:44.834Z,97656.44
2018-10-21T07:25:12.149Z,97652.50
2018-10-21T07:27:39.926Z,97654.88
2018-10-21T07:31:31.727Z,97663.84
2018-10-21T07:33:58.960Z,97659.17
2018-10-21T07:36:26.228Z,97659.66
2018-10-21T07:38:53.445Z,97656.97
2018-10-21T07:41:20.780Z,97649.95
2018-10-21T07:43:48.071Z,97659.23
2018-10-21T07:46:15.455Z,97659.90
2018-10-21T07:48:42.671Z,97658.74
2018-10-21T07:51:10.363Z,97655.44
2018-10-21T07:53:37.665Z,97661.23
2018-10-21T07:56:05.069Z,97648.27
2018-10-21T07:58:32.342Z,97648.42
2018-10-21T08:00:59.702Z,97645.72
2018-10-21T08:03:26.875Z,97649.77
2018-10-21T08:06:19.126Z,97653.95
2018-10-21T08:08:46.494Z,97647.43
2018-10-21T08:11:13.667Z,97644.83
2018-10-21T08:13:40.948Z,97637.77
2018-10-21T08:16:08.253Z,97639.63
2018-10-21T08:18:35.419Z,97636.16
2018-10-21T08:21:02.787Z,97644.45
2018-10-21T08:23:30.082Z,97649.02
2018-10-21T08:25:57.371Z,97639.30
2018-10-21T08:28:24.644Z,97629.83
2018-10-21T08:30:51.890Z,97636.91
2018-10-21T08:33:19.216Z,97645.95
2018-10-21T08:35:46.506Z,97643.73
2018-10-21T08:38:13.735Z,97640.68
2018-10-21T08:40:41.006Z,97635.02
2018-10-21T08:43:08.344Z,97647.47
2018-10-21T08:45:35.611Z,97636.18
2018-10-21T08:48:02.973Z,97634.70
2018-10-21T08:50:30.259Z,97639.03
2018-10-21T08:52:57.564Z,97633.06
2018-10-21T08:55:24.860Z,97635.31
2018-10-21T08:57:52.128Z,97637.87
2018-10-21T09:00:19.755Z,97627.66
2018-10-21T09:02:47.207Z,97621.91
2018-10-21T09:05:17.750Z,97621.84
2018-10-21T09:07:45.282Z,97623.30
2018-10-21T09:10:13.924Z,97621.61
2018-10-21T09:12:41.342Z,97616.54
2018-10-21T09:15:11.561Z,97618.91
2018-10-21T09:17:38.934Z,97624.31
2018-10-21T09:20:08.045Z,97615.55
2018-10-21T09:22:35.434Z,97616.11
2018-10-21T09:25:02.796Z,97617.61
2018-10-21T09:27:30.093Z,97618.78
2018-10-21T09:29:57.507Z,97615.66
2018-10-21T09:32:24.716Z,97614.29
2018-10-21T09:34:51.978Z,97622.08
2018-10-21T09:37:19.262Z,97615.91
2018-10-21T09:39:46.522Z,97618.47
2018-10-21T09:42:13.945Z,97618.74
2018-10-21T09:44:41.189Z,97613.92
2018-10-21T09:47:08.458Z,97617.22
2018-10-21T09:49:35.752Z,97617.08
2018-10-21T09:52:03.075Z,97613.52
2018-10-21T09:54:30.342Z,97612.76
2018-10-21T09:56:57.770Z,97617.61
2018-10-21T09:59:25.113Z,97613.64
2018-10-21T10:01:58.090Z,97609.19
2018-10-21T10:04:25.397Z,97608.08
2018-10-21T10:06:52.568Z,97606.69
2018-10-21T10:09:19.942Z,97603.85
2018-10-21T10:11:47.257Z,97602.72
2018-10-21T10:14:14.527Z,97598.34
2018-10-21T10:16:41.783Z,97591.25
2018-10-21T10:19:09.085Z,97595.98
2018-10-21T10:21:36.287Z,97589.26
2018-10-21T10:24:03.699Z,97590.00
2018-10-21T10:26:31.186Z,97592.77
2018-10-21T10:28:58.625Z,97583.07
2018-10-21T10:31:26.179Z,97569.30
2018-10-21T10:33:53.519Z,97569.70
2018-10-21T10:36:20.838Z,97566.61
2018-10-21T10:38:47.970Z,97564.91
2018-10-21T10:41:15.223Z,97560.31
2018-10-21T10:43:42.516Z,97564.12
2018-10-21T10:46:09.863Z,97562.23
2018-10-21T10:48:37.156Z,97559.80
2018-10-21T10:51:04.864Z,97560.14
2018-10-21T10:53:32.138Z,97546.30
2018-10-21T10:55:59.392Z,97556.16
2018-10-21T10:58:26.662Z,97562.30
2018-10-21T11:00:53.943Z,97554.19
2018-10-21T11:03:21.262Z,97548.48
2018-10-21T11:05:48.644Z,97540.39
2018-10-21T11:08:15.859Z,97544.33
2018-10-21T11:10:43.169Z,97538.23
2018-10-21T11:13:10.445Z,97529.59
2018-10-21T11:15:37.795Z,97533.19
2018-10-21T11:18:05.162Z,97535.78
2018-10-21T11:20:32.412Z,97533.94
2018-10-21T11:22:59.743Z,97517.97
2018-10-21T11:25:27.064Z,97530.69
2018-10-21T11:27:54.368Z,97530.04
2018-10-21T11:30:21.677Z,97527.73
2018-10-21T11:32:49.059Z,97523.01
2018-10-21T11:35:16.272Z,97524.11
2018-10-21T11:37:43.679Z,97517.16
2018-10-21T11:40:10.884Z,97516.90
2018-10-21T11:42:38.116Z,97512.04
2018-10-21T11:45:05.945Z,97506.19
2018-10-21T11:47:33.264Z,97498.52
2018-10-21T11:50:00.538Z,97511.44
2018-10-21T11:52:27.869Z,97508.05
2018-10-21T11:54:55.119Z,97513.88
2018-10-21T11:57:22.656Z,97499.39
2018-10-21T11:59:49.942Z,97503.74
2018-10-21T12:02:17.280Z,97498.28
2018-10-21T12:04:44.725Z,97500.39
2018-10-21T12:07:12.072Z,97493.09
2018-10-21T12:09:39.349Z,97501.66
2018-10-21T12:12:06.717Z,97494.41
2018-10-21T12:14:34.017Z,97490.80
2018-10-21T12:17:01.318Z,97494.22
2018-10-21T12:19:29.202Z,97494.73
2018-10-21T12:21:56.563Z,97489.02
2018-10-21T12:24:48.123Z,97494.37
2018-10-21T12:27:16.026Z,97488.62
2018-10-21T12:29:43.322Z,97482.94
2018-10-21T12:32:10.573Z,97486.28
2018-10-21T12:34:37.863Z,97480.70
2018-10-21T12:37:05.279Z,97479.36
2018-10-21T12:39:32.616Z,97482.34
2018-10-21T12:41:59.807Z,97479.31
2018-10-21T12:44:27.056Z,97476.86
2018-10-21T12:46:54.404Z,97463.33
2018-10-21T12:49:21.742Z,97465.08
2018-10-21T12:51:48.957Z,97458.22
2018-10-21T12:54:16.341Z,97455.52
2018-10-21T12:56:43.597Z,97462.25
2018-10-21T12:59:11.025Z,97451.59
2018-10-21T13:01:38.346Z,97449.59
2018-10-21T13:04:05.721Z,97445.25
2018-10-21T13:06:32.970Z,97446.77
2018-10-21T13:09:00.194Z,97450.58
2018-10-21T13:11:27.509Z,97444.77
2018-10-21T13:13:54.832Z,97441.33
2018-10-21T13:16:22.149Z,97445.14
2018-10-21T13:18:49.705Z,97437.05
2018-10-21T13:21:16.948Z,97446.87
2018-10-21T13:23:44.278Z,97438.77
2018-10-21T13:26:11.518Z,97444.40
2018-10-21T13:28:38.790Z,97440.78
2018-10-21T13:31:06.040Z,97443.45
2018-10-21T13:33:33.283Z,97439.28
2018-10-21T13:36:02.978Z,97435.03
2018-10-21T13:38:30.292Z,97439.69
2018-10-21T13:40:57.562Z,97434.05
2018-10-21T13:43:24.873Z,97426.32
2018-10-21T13:45:52.179Z,97422.67
2018-10-21T13:48:19.426Z,97422.23
2018-10-21T13:50:46.645Z,97426.24
2018-10-21T13:53:13.948Z,97426.94
2018-10-21T13:55:41.155Z,97430.72
2018-10-21T13:58:08.467Z,97425.87
2018-10-21T14:00:35.851Z,97424.02
2018-10-21T14:03:03.007Z,97415.61
2018-10-21T14:05:30.330Z,97413.06
2018-10-21T14:07:57.589Z,97408.88
2018-10-21T14:10:24.799Z,97409.19
2018-10-21T14:12:52.073Z,97409.13
2018-10-21T14:15:19.408Z,97403.74
2018-10-21T14:17:46.635Z,97405.75
2018-10-21T14:20:13.911Z,97403.49
2018-10-21T14:22:41.158Z,97403.94
2018-10-21T14:25:08.509Z,97401.29
2018-10-21T14:27:35.984Z,97396.56
2018-10-21T14:30:03.595Z,97405.05
2018-10-21T14:32:30.766Z,97402.39
2018-10-21T14:34:58.027Z,97399.19
2018-10-21T14:37:25.635Z,97396.98
2018-10-21T14:39:52.871Z,97395.06
2018-10-21T14:42:20.147Z,97391.26
2018-10-21T14:44:47.355Z,97400.31
2018-10-21T14:47:14.574Z,97392.70
2018-10-21T14:49:41.838Z,97390.97
2018-10-21T14:52:09.070Z,97387.34
2018-10-21T14:54:36.372Z,97380.94
2018-10-21T14:57:03.783Z,97382.84
2018-10-21T14:59:31.234Z,97385.39
2018-10-21T15:01:58.479Z,97384.92
2018-10-21T15:04:25.771Z,97385.44
2018-10-21T15:06:53.158Z,97381.44
2018-10-21T15:09:20.450Z,97384.33
2018-10-21T15:11:47.680Z,97384.14
2018-10-21T15:14:14.961Z,97374.22
2018-10-21T15:16:42.093Z,97374.81
2018-10-21T15:19:09.268Z,97373.33
2018-10-21T15:21:37.022Z,97372.97
2018-10-21T15:24:04.487Z,97374.53
2018-10-21T15:26:31.809Z,97365.25
2018-10-21T15:28:59.142Z,97376.60
2018-10-21T15:31:26.369Z,97377.76
2018-10-21T15:33:53.680Z,97372.30
2018-10-21T15:36:20.970Z,97375.43
2018-10-21T15:38:48.263Z,97373.89
2018-10-21T15:41:15.705Z,97371.06
2018-10-21T15:43:42.949Z,97366.89
2018-10-21T15:46:10.288Z,97361.39
2018-10-21T15:48:37.558Z,97355.56
2018-10-21T15:51:05.032Z,97365.77
2018-10-21T15:53:32.315Z,97367.72
2018-10-21T15:55:59.587Z,97369.30
2018-10-21T15:58:26.962Z,97365.80
2018-10-21T16:00:54.320Z,97359.81
2018-10-21T16:03:21.658Z,97362.59
2018-10-21T16:05:48.881Z,97355.48
2018-10-21T16:08:16.225Z,97366.32
2018-10-21T16:10:43.458Z,97359.41
2018-10-21T16:13:11.648Z,97358.72
2018-10-21T16:15:39.439Z,97357.34
2018-10-21T16:18:07.464Z,97368.02
2018-10-21T16:20:36.495Z,97374.33
2018-10-21T16:23:04.894Z,97376.23
2018-10-21T16:25:32.769Z,97372.98
2018-10-21T16:28:00.214Z,97376.16
2018-10-21T16:30:27.696Z,97375.86
2018-10-21T16:32:55.096Z,97374.02
2018-10-21T16:35:22.259Z,97375.77
2018-10-21T16:37:49.860Z,97375.69
2018-10-21T16:40:17.216Z,97377.41
2018-10-21T16:42:44.522Z,97380.94
2018-10-21T16:45:12.770Z,97385.46
2018-10-21T16:47:40.219Z,97381.80
2018-10-21T16:50:09.482Z,97389.12
2018-10-21T16:52:36.915Z,97390.52
2018-10-21T16:55:04.977Z,97388.72
2018-10-21T16:57:32.375Z,97389.02
2018-10-21T16:59:59.625Z,97393.50
2018-10-21T17:02:26.911Z,97394.01
2018-10-21T17:04:54.189Z,97393.92
2018-10-21T17:07:21.491Z,97394.83
2018-10-21T17:09:49.069Z,97402.66
2018-10-21T17:12:16.115Z,97398.77
2018-10-21T17:14:43.375Z,97397.50
2018-10-21T17:17:11.473Z,97400.47
2018-10-21T17:19:38.737Z,97397.00
2018-10-21T17:22:06.083Z,97402.27
2018-10-21T17:24:33.298Z,97405.47
2018-10-21T17:27:00.533Z,97401.30
2018-10-21T17:29:27.885Z,97408.34
2018-10-21T17:31:55.173Z,97404.67
2018-10-21T17:34:22.505Z,97407.30
2018-10-21T17:36:49.997Z,97407.28
2018-10-21T17:39:17.429Z,97411.80
2018-10-21T17:41:44.833Z,97409.72
2018-10-21T17:44:12.495Z,97408.25
2018-10-21T17:46:39.801Z,97407.89
2018-10-21T17:49:07.277Z,97403.97
2018-10-21T17:51:34.520Z,97404.14
2018-10-21T17:54:01.822Z,97410.15
2018-10-21T17:56:29.167Z,97412.19
2018-10-21T17:58:56.591Z,97414.23
2018-10-21T18:01:24.075Z,97391.54
2018-10-21T18:03:51.387Z,97409.93
2018-10-21T18:06:18.750Z,97409.74
2018-10-21T18:08:46.060Z,97419.06
2018-10-21T18:11:13.343Z,97410.28
2018-10-21T18:13:40.516Z,97420.84
2018-10-21T18:16:07.818Z,97414.84
2018-10-21T18:18:35.221Z,97415.49
2018-10-21T18:21:02.608Z,97422.05
2018-10-21T18:23:29.875Z,97418.93
2018-10-21T18:25:57.179Z,97420.59
2018-10-21T18:28:24.365Z,97417.05
2018-10-21T18:30:51.630Z,97420.22
2018-10-21T18:33:18.871Z,97412.20
2018-10-21T18:35:46.159Z,97418.97
2018-10-21T18:38:13.566Z,97421.73
2018-10-21T18:40:49.525Z,97424.84
2018-10-21T18:43:16.745Z,97418.64
2018-10-21T18:45:44.061Z,97422.08
2018-10-21T18:48:11.294Z,97422.41
2018-10-21T18:50:38.523Z,97420.66
2018-10-21T18:53:05.768Z,97417.27
2018-10-21T18:55:33.007Z,97418.05
2018-10-21T18:58:00.315Z,97414.20
2018-10-21T19:00:27.656Z,97411.48
2018-10-21T19:02:54.975Z,97411.08
2018-10-21T19:05:22.314Z,97415.22
2018-10-21T19:07:49.636Z,97420.50
2018-10-21T19:10:16.936Z,97419.30
2018-10-21T19:12:44.683Z,97421.53
2018-10-21T19:15:12.711Z,97413.98
2018-10-21T19:17:40.511Z,97419.62
2018-10-21T19:20:10.101Z,97423.91
2018-10-21T19:22:37.362Z,97423.23
2018-10-21T19:25:06.213Z,97423.30
2018-10-21T19:27:33.531Z,97420.82
2018-10-21T19:30:00.820Z,97423.25
2018-10-21T19:32:28.053Z,97413.74
2018-10-21T19:34:55.287Z,97425.48
2018-10-21T19:37:22.528Z,97424.58
2018-10-21T19:39:49.858Z,97425.55
2018-10-21T19:42:17.149Z,97430.34
2018-10-21T19:44:44.472Z,97419.78
2018-10-21T19:47:11.786Z,97423.33
2018-10-21T19:49:39.296Z,97418.63
2018-10-21T19:52:06.603Z,97421.11
2018-10-21T19:54:33.813Z,97418.64
2018-10-21T19:57:01.094Z,97424.03
2018-10-21T19:59:28.378Z,97426.27
2018-10-21T20:01:55.665Z,97425.51
2018-10-21T20:04:22.919Z,97426.84
2018-10-21T20:06:50.193Z,97426.84
2018-10-21T20:09:17.379Z,97425.53
2018-10-21T20:11:44.714Z,97430.74
2018-10-21T20:14:12.000Z,97424.84
2018-10-21T20:16:39.363Z,97425.85
2018-10-21T20:19:07.459Z,97438.86
2018-10-21T20:21:34.749Z,97439.17
2018-10-21T20:24:02.042Z,97440.92
2018-10-21T20:26:29.377Z,97438.92
2018-10-21T20:28:56.552Z,97444.38
2018-10-21T20:31:23.968Z,97444.12
2018-10-21T20:33:51.269Z,97439.09
2018-10-21T20:36:18.567Z,97442.45
2018-10-21T20:38:45.870Z,97444.59
2018-10-21T20:41:13.149Z,97442.50
2018-10-21T20:43:40.405Z,97448.56
2018-10-21T20:46:07.695Z,97448.47
2018-10-21T20:48:34.975Z,97450.98
2018-10-21T20:51:02.334Z,97443.77
2018-10-21T20:53:29.653Z,97449.61
2018-10-21T20:55:56.974Z,97455.97
2018-10-21T20:58:24.333Z,97454.19
2018-10-21T21:00:51.594Z,97459.84
2018-10-21T21:03:18.860Z,97465.36
2018-10-21T21:05:46.163Z,97461.61
2018-10-21T21:08:13.457Z,97459.84
2018-10-21T21:10:40.727Z,97465.52
2018-10-21T21:13:08.118Z,97469.86
2018-10-21T21:15:35.416Z,97472.91
2018-10-21T21:18:02.663Z,97471.88
2018-10-21T21:20:29.954Z,97475.35
2018-10-21T21:22:57.302Z,97474.71
2018-10-21T21:25:24.597Z,97468.05
2018-10-21T21:27:51.865Z,97477.79
2018-10-21T21:30:19.129Z,97471.50
2018-10-21T21:32:46.348Z,97478.06
2018-10-21T21:35:13.640Z,97474.98
2018-10-21T21:37:40.911Z,97473.75
2018-10-21T21:40:09.167Z,97468.55
2018-10-21T21:42:36.335Z,97470.50
2018-10-21T21:45:03.867Z,97463.55
2018-10-21T21:47:31.101Z,97465.95
2018-10-21T21:49:58.334Z,97464.83
2018-10-21T21:52:25.599Z,97463.05
2018-10-21T21:54:52.839Z,97463.27
2018-10-21T21:57:20.072Z,97460.19
2018-10-21T21:59:47.318Z,97454.45
2018-10-21T22:02:14.539Z,97457.36
2018-10-21T22:04:41.806Z,97454.61
2018-10-21T22:07:10.031Z,97454.94
2018-10-21T22:09:37.376Z,97451.24
2018-10-21T22:12:04.776Z,97450.77
2018-10-21T22:14:31.992Z,97450.50
2018-10-21T22:16:59.302Z,97454.02
2018-10-21T22:19:26.979Z,97455.97
2018-10-21T22:21:54.281Z,97452.28
2018-10-21T22:24:21.485Z,97450.98
2018-10-21T22:26:48.807Z,97446.81
2018-10-21T22:29:16.067Z,97445.13
2018-10-21T22:31:43.377Z,97437.39
2018-10-21T22:34:10.688Z,97444.42
2018-10-21T22:36:37.909Z,97440.52
2018-10-21T22:39:05.926Z,97444.48
2018-10-21T22:41:33.194Z,97441.55
2018-10-21T22:44:00.447Z,97440.94
2018-10-21T22:47:52.220Z,97442.44
2018-10-21T22:50:19.525Z,97443.08
2018-10-21T22:52:46.834Z,97442.00
2018-10-21T22:55:14.124Z,97441.16
2018-10-21T22:57:41.412Z,97440.72
2018-10-21T23:00:09.270Z,97435.13
2018-10-21T23:02:36.554Z,97439.66
2018-10-21T23:05:05.155Z,97435.96
2018-10-21T23:07:32.493Z,97435.30
2018-10-21T23:09:59.859Z,97437.50
2018-10-21T23:12:27.049Z,97433.47
2018-10-21T23:14:54.303Z,97437.69
2018-10-21T23:17:21.587Z,97434.19
2018-10-21T23:19:49.771Z,97439.81
2018-10-21T23:22:17.310Z,97437.03
2018-10-21T23:24:44.551Z,97431.65
2018-10-21T23:27:12.477Z,97430.88
2018-10-21T23:29:40.328Z,97435.48
2018-10-21T23:32:07.630Z,97438.72
2018-10-21T23:34:34.909Z,97436.69
2018-10-21T23:37:02.153Z,97436.68
2018-10-21T23:39:29.632Z,97436.14
2018-10-21T23:41:57.500Z,97433.31
2018-10-21T23:44:24.743Z,97431.14
2018-10-21T23:46:52.012Z,97425.01
2018-10-21T23:49:19.316Z,97427.47
2018-10-21T23:51:46.917Z,97427.50
2018-10-21T23:54:14.285Z,97425.16
2018-10-21T23:56:41.492Z,97417.33
2018-10-21T23:59:09.846Z,97422.60
